createdAt,value
2022-08-01T00:00:44.489Z,23.56
2022-08-01T00:03:17.254Z,23.54
2022-08-01T00:05:46.364Z,23.55
2022-08-01T00:08:15.186Z,23.49
2022-08-01T00:10:46.506Z,23.46
2022-08-01T00:13:17.408Z,23.41
2022-08-01T00:15:54.156Z,23.35
2022-08-01T00:18:27.063Z,23.30
2022-08-01T00:21:04.297Z,23.29
2022-08-01T00:23:32.874Z,23.29
2022-08-01T00:26:01.898Z,23.30
2022-08-01T00:28:29.300Z,23.25
2022-08-01T00:30:56.907Z,23.25
2022-08-01T00:33:24.442Z,23.21
2022-08-01T00:35:51.854Z,23.14
2022-08-01T00:38:19.212Z,23.12
2022-08-01T00:40:46.773Z,23.13
2022-08-01T00:43:14.810Z,23.11
2022-08-01T00:45:43.486Z,23.07
2022-08-01T00:48:11.160Z,22.96
2022-08-01T00:50:39.122Z,22.85
2022-08-01T00:53:08.288Z,22.77
2022-08-01T00:55:37.128Z,22.75
2022-08-01T00:58:06.602Z,22.76
2022-08-01T01:00:52.174Z,22.75
2022-08-01T01:03:43.364Z,22.66
2022-08-01T01:06:38.088Z,22.64
2022-08-01T01:10:05.882Z,22.69
2022-08-01T01:12:50.117Z,22.67
2022-08-01T01:15:47.435Z,22.64
2022-08-01T01:18:33.494Z,22.62
2022-08-01T01:21:19.307Z,22.57
2022-08-01T01:24:27.014Z,22.47
2022-08-01T01:27:39.695Z,22.36
2022-08-01T01:30:09.636Z,22.38
2022-08-01T01:32:44.480Z,22.46
2022-08-01T01:35:25.964Z,22.53
2022-08-01T01:38:06.777Z,22.46
2022-08-01T01:40:35.240Z,22.34
2022-08-01T01:43:02.618Z,22.23
2022-08-01T01:45:31.767Z,22.11
2022-08-01T01:48:02.102Z,22.04
2022-08-01T01:50:30.863Z,21.96
2022-08-01T01:53:00.457Z,21.95
2022-08-01T01:55:29.276Z,21.95
2022-08-01T01:57:58.401Z,22.02
2022-08-01T02:00:26.923Z,22.03
2022-08-01T02:02:57.655Z,21.98
2022-08-01T02:05:27.434Z,22.01
2022-08-01T02:07:59.693Z,22.00
2022-08-01T02:10:30.531Z,22.02
2022-08-01T02:13:00.809Z,22.04
2022-08-01T02:15:31.246Z,22.10
2022-08-01T02:18:00.817Z,22.08
2022-08-01T02:20:31.699Z,22.06
2022-08-01T02:23:09.486Z,21.96
2022-08-01T02:26:09.788Z,21.90
2022-08-01T02:28:58.639Z,21.88
2022-08-01T02:31:27.909Z,21.85
2022-08-01T02:34:11.272Z,21.82
2022-08-01T02:36:41.943Z,21.79
2022-08-01T02:39:17.391Z,21.68
2022-08-01T02:41:49.939Z,21.64
2022-08-01T02:44:40.282Z,21.68
2022-08-01T02:47:08.047Z,21.63
2022-08-01T02:49:46.263Z,21.61
2022-08-01T02:52:17.895Z,21.48
2022-08-01T02:54:47.169Z,21.44
2022-08-01T02:57:16.060Z,21.41
2022-08-01T02:59:47.696Z,21.39
2022-08-01T03:02:18.035Z,21.38
2022-08-01T03:04:46.345Z,21.41
2022-08-01T03:07:15.883Z,21.43
2022-08-01T03:09:47.416Z,21.47
2022-08-01T03:12:25.268Z,21.47
2022-08-01T03:14:55.636Z,21.50
2022-08-01T03:17:30.744Z,21.48
2022-08-01T03:20:00.170Z,21.48
2022-08-01T03:22:30.430Z,21.47
2022-08-01T03:25:00.322Z,21.45
2022-08-01T03:27:28.484Z,21.43
2022-08-01T03:29:58.954Z,21.35
2022-08-01T03:32:28.216Z,21.26
2022-08-01T03:34:55.689Z,21.21
2022-08-01T03:37:54.344Z,21.16
2022-08-01T03:40:42.816Z,21.17
2022-08-01T03:43:49.401Z,21.11
2022-08-01T03:46:30.711Z,21.11
2022-08-01T03:49:06.349Z,21.15
2022-08-01T03:51:35.520Z,21.06
2022-08-01T03:54:05.523Z,21.00
2022-08-01T03:56:35.326Z,20.87
2022-08-01T03:59:04.597Z,20.83
2022-08-01T04:01:34.595Z,20.79
2022-08-01T04:04:02.521Z,20.75
2022-08-01T04:06:31.001Z,20.76
2022-08-01T04:08:59.510Z,20.72
2022-08-01T04:11:28.914Z,20.70
2022-08-01T04:13:58.212Z,20.63
2022-08-01T04:16:26.416Z,20.63
2022-08-01T04:18:53.975Z,20.59
2022-08-01T04:21:30.209Z,20.61
2022-08-01T04:24:07.794Z,20.66
2022-08-01T04:26:38.740Z,20.76
2022-08-01T04:29:09.518Z,20.82
2022-08-01T04:31:40.633Z,20.83
2022-08-01T04:34:11.172Z,20.85
2022-08-01T04:36:43.029Z,21.00
2022-08-01T04:39:12.432Z,21.09
2022-08-01T04:41:40.998Z,21.13
2022-08-01T04:44:09.635Z,21.20
2022-08-01T04:46:38.685Z,21.21
2022-08-01T04:49:12.813Z,21.26
2022-08-01T04:52:01.411Z,21.31
2022-08-01T04:54:31.465Z,21.37
2022-08-01T04:57:00.977Z,21.45
2022-08-01T04:59:41.138Z,21.51
2022-08-01T05:02:19.186Z,21.54
2022-08-01T05:04:47.661Z,21.61
2022-08-01T05:07:16.775Z,21.67
2022-08-01T05:09:46.937Z,21.73
2022-08-01T05:12:14.502Z,21.81
2022-08-01T05:14:42.408Z,21.93
2022-08-01T05:17:10.856Z,22.03
2022-08-01T05:19:40.932Z,22.14
2022-08-01T05:22:10.608Z,22.22
2022-08-01T05:24:40.464Z,22.30
2022-08-01T05:27:09.487Z,22.38
2022-08-01T05:29:44.406Z,22.46
2022-08-01T05:32:12.928Z,22.56
2022-08-01T05:34:40.316Z,22.68
2022-08-01T05:37:08.837Z,22.76
2022-08-01T05:39:36.522Z,22.79
2022-08-01T05:42:05.149Z,22.83
2022-08-01T05:44:33.694Z,22.92
2022-08-01T05:47:01.272Z,23.02
2022-08-01T05:49:28.725Z,23.10
2022-08-01T05:51:56.373Z,23.20
2022-08-01T05:54:23.953Z,23.31
2022-08-01T05:56:53.750Z,23.34
2022-08-01T05:59:22.414Z,23.40
2022-08-01T06:01:50.148Z,23.47
2022-08-01T06:04:17.606Z,23.59
2022-08-01T06:06:45.071Z,23.72
2022-08-01T06:09:12.553Z,23.86
2022-08-01T06:11:40.165Z,24.01
2022-08-01T06:14:07.697Z,24.12
2022-08-01T06:16:36.148Z,24.21
2022-08-01T06:19:03.593Z,24.29
2022-08-01T06:21:31.056Z,24.33
2022-08-01T06:23:58.496Z,24.42
2022-08-01T06:26:25.917Z,24.51
2022-08-01T06:28:56.500Z,24.55
2022-08-01T06:31:24.026Z,24.63
2022-08-01T06:33:51.449Z,24.78
2022-08-01T06:36:19.093Z,24.77
2022-08-01T06:38:46.503Z,24.67
2022-08-01T06:41:13.934Z,24.60
2022-08-01T06:43:41.254Z,24.66
2022-08-01T06:46:09.932Z,24.69
2022-08-01T06:48:40.357Z,24.77
2022-08-01T06:51:12.406Z,24.87
2022-08-01T06:53:40.418Z,25.01
2022-08-01T06:56:09.778Z,25.21
2022-08-01T06:58:38.159Z,25.29
2022-08-01T07:01:08.140Z,25.37
2022-08-01T07:03:53.642Z,25.47
2022-08-01T07:06:25.608Z,25.58
2022-08-01T07:08:56.487Z,25.66
2022-08-01T07:11:25.735Z,25.69
2022-08-01T07:13:53.403Z,25.67
2022-08-01T07:16:21.915Z,25.75
2022-08-01T07:18:50.370Z,25.83
2022-08-01T07:21:40.171Z,25.86
2022-08-01T07:24:12.588Z,25.87
2022-08-01T07:26:52.661Z,25.97
2022-08-01T07:29:47.336Z,26.07
2022-08-01T07:32:15.748Z,26.16
2022-08-01T07:34:45.671Z,26.28
2022-08-01T07:37:13.088Z,26.31
2022-08-01T07:39:40.417Z,26.33
2022-08-01T07:42:08.531Z,26.37
2022-08-01T07:44:37.008Z,26.40
2022-08-01T07:47:06.114Z,26.33
2022-08-01T07:49:40.049Z,26.39
2022-08-01T07:52:09.364Z,26.54
2022-08-01T07:54:39.083Z,26.60
2022-08-01T07:57:06.591Z,26.68
2022-08-01T07:59:34.905Z,26.71
2022-08-01T08:02:02.973Z,26.86
2022-08-01T08:04:32.682Z,26.99
2022-08-01T08:07:00.119Z,26.96
2022-08-01T08:09:29.659Z,26.95
2022-08-01T08:11:57.160Z,26.98
2022-08-01T08:14:32.544Z,26.91
2022-08-01T08:17:02.157Z,27.03
2022-08-01T08:19:37.776Z,27.14
2022-08-01T08:22:10.770Z,27.16
2022-08-01T08:24:45.560Z,27.09
2022-08-01T08:27:15.687Z,27.15
2022-08-01T08:29:43.883Z,27.13
2022-08-01T08:32:12.759Z,27.15
2022-08-01T08:34:40.323Z,27.12
2022-08-01T08:37:09.474Z,27.11
2022-08-01T08:39:41.924Z,27.23
2022-08-01T08:42:12.698Z,27.44
2022-08-01T08:44:44.338Z,27.46
2022-08-01T08:47:20.302Z,27.54
2022-08-01T08:49:52.932Z,27.57
2022-08-01T08:52:23.203Z,27.61
2022-08-01T08:54:52.761Z,27.71
2022-08-01T08:57:22.059Z,27.78
2022-08-01T08:59:52.927Z,27.85
2022-08-01T09:02:22.794Z,27.97
2022-08-01T09:04:51.936Z,28.02
2022-08-01T09:07:20.791Z,28.08
2022-08-01T09:09:50.121Z,27.99
2022-08-01T09:12:21.202Z,27.97
2022-08-01T09:14:51.441Z,28.03
2022-08-01T09:17:18.846Z,28.09
2022-08-01T09:19:54.649Z,28.16
2022-08-01T09:22:25.894Z,28.04
2022-08-01T09:25:11.984Z,27.84
2022-08-01T09:27:46.354Z,28.17
2022-08-01T09:30:23.387Z,28.47
2022-08-01T09:33:06.389Z,28.63
2022-08-01T09:35:55.817Z,28.78
2022-08-01T09:38:28.162Z,28.59
2022-08-01T09:41:01.739Z,28.65
2022-08-01T09:43:32.777Z,28.77
2022-08-01T09:46:12.423Z,28.80
2022-08-01T09:48:56.054Z,29.04
2022-08-01T09:51:59.959Z,29.02
2022-08-01T09:54:34.861Z,28.84
2022-08-01T09:57:18.050Z,28.92
2022-08-01T10:00:00.828Z,29.17
2022-08-01T10:02:44.187Z,29.23
2022-08-01T10:05:18.855Z,29.18
2022-08-01T10:08:02.964Z,29.35
2022-08-01T10:10:37.451Z,29.51
2022-08-01T10:13:06.407Z,29.57
2022-08-01T10:15:38.817Z,29.82
2022-08-01T10:18:16.114Z,29.90
2022-08-01T10:20:45.517Z,29.93
2022-08-01T10:23:13.889Z,30.01
2022-08-01T10:25:47.018Z,30.07
2022-08-01T10:28:24.085Z,29.95
2022-08-01T10:30:53.354Z,29.78
2022-08-01T10:33:50.559Z,29.83
2022-08-01T10:36:13.879Z,29.65
2022-08-01T10:38:41.875Z,30.08
2022-08-01T10:41:10.813Z,30.11
2022-08-01T10:43:38.185Z,30.37
2022-08-01T10:46:06.530Z,30.73
2022-08-01T10:48:45.778Z,30.79
2022-08-01T10:51:17.513Z,30.80
2022-08-01T10:53:55.997Z,30.97
2022-08-01T10:56:26.457Z,30.72
2022-08-01T10:59:06.405Z,30.84
2022-08-01T11:01:44.727Z,30.99
2022-08-01T11:04:17.755Z,31.09
2022-08-01T11:07:25.788Z,31.31
2022-08-01T11:10:24.467Z,31.37
2022-08-01T11:12:52.370Z,31.10
2022-08-01T11:15:29.653Z,31.32
2022-08-01T11:18:03.117Z,31.72
2022-08-01T11:20:42.410Z,31.10
2022-08-01T11:23:17.004Z,31.09
2022-08-01T11:26:05.470Z,31.32
2022-08-01T11:28:36.617Z,31.59
2022-08-01T11:31:11.560Z,31.49
2022-08-01T11:33:46.107Z,31.32
2022-08-01T11:36:15.220Z,31.41
2022-08-01T11:38:59.974Z,31.09
2022-08-01T11:41:37.439Z,31.20
2022-08-01T11:44:11.571Z,31.44
2022-08-01T11:47:15.038Z,31.81
2022-08-01T11:49:56.365Z,32.05
2022-08-01T11:52:41.796Z,31.82
2022-08-01T11:55:11.530Z,31.85
2022-08-01T11:57:39.954Z,32.15
2022-08-01T12:00:18.140Z,31.84
2022-08-01T12:02:48.400Z,31.95
2022-08-01T12:05:21.644Z,32.34
2022-08-01T12:07:54.745Z,32.23
2022-08-01T12:10:47.005Z,32.13
2022-08-01T12:13:23.328Z,32.03
2022-08-01T12:15:56.848Z,32.51
2022-08-01T12:18:29.948Z,32.86
2022-08-01T12:21:08.520Z,33.20
2022-08-01T12:23:43.535Z,32.89
2022-08-01T12:26:32.067Z,32.91
2022-08-01T12:29:04.125Z,32.38
2022-08-01T12:31:51.367Z,32.62
2022-08-01T12:34:38.976Z,33.29
2022-08-01T12:37:07.461Z,33.77
2022-08-01T12:39:40.110Z,33.73
2022-08-01T12:42:12.040Z,32.87
2022-08-01T12:44:47.494Z,33.26
2022-08-01T12:47:16.698Z,33.99
2022-08-01T12:49:49.979Z,34.00
2022-08-01T12:52:26.798Z,34.41
2022-08-01T12:55:34.186Z,34.77
2022-08-01T12:58:37.579Z,34.84
2022-08-01T13:01:59.581Z,34.76
2022-08-01T13:05:04.775Z,35.33
2022-08-01T13:07:54.920Z,35.70
2022-08-01T13:10:45.732Z,35.13
2022-08-01T13:13:53.162Z,35.13
2022-08-01T13:16:49.120Z,36.31
2022-08-01T13:19:20.659Z,36.87
2022-08-01T13:21:59.350Z,36.74
2022-08-01T13:24:33.315Z,37.69
2022-08-01T13:27:07.932Z,38.26
2022-08-01T13:29:48.370Z,38.48
2022-08-01T13:32:32.484Z,38.78
2022-08-01T13:35:10.518Z,41.06
2022-08-01T13:37:40.484Z,38.66
2022-08-01T13:40:11.985Z,38.00
2022-08-01T13:42:39.778Z,38.90
2022-08-01T13:45:14.426Z,38.53
2022-08-01T13:48:12.361Z,40.12
2022-08-01T13:50:33.843Z,39.07
2022-08-01T13:53:01.369Z,39.15
2022-08-01T13:55:34.065Z,37.43
2022-08-01T13:58:03.572Z,38.95
2022-08-01T14:00:31.211Z,39.66
2022-08-01T14:02:58.569Z,40.74
2022-08-01T14:05:25.964Z,40.76
2022-08-01T14:07:56.165Z,42.87
2022-08-01T14:10:25.662Z,43.69
2022-08-01T14:12:56.821Z,43.68
2022-08-01T14:15:38.570Z,43.37
2022-08-01T14:18:10.023Z,43.13
2022-08-01T14:20:40.172Z,44.42
2022-08-01T14:23:08.586Z,44.04
2022-08-01T14:26:03.347Z,43.08
2022-08-01T14:28:31.630Z,41.28
2022-08-01T14:30:59.681Z,41.95
2022-08-01T14:33:28.215Z,41.54
2022-08-01T14:36:01.952Z,39.67
2022-08-01T14:38:46.429Z,39.98
2022-08-01T14:41:16.183Z,40.76
2022-08-01T14:43:43.898Z,42.41
2022-08-01T14:46:13.342Z,40.91
2022-08-01T14:48:41.464Z,42.97
2022-08-01T14:51:09.487Z,44.34
2022-08-01T14:53:37.739Z,44.81
2022-08-01T14:56:05.872Z,45.46
2022-08-01T14:58:34.350Z,42.38
2022-08-01T15:01:02.158Z,40.99
2022-08-01T15:03:29.673Z,43.21
2022-08-01T15:05:57.065Z,43.94
2022-08-01T15:08:24.508Z,45.14
2022-08-01T15:10:53.342Z,46.62
2022-08-01T15:13:21.067Z,46.39
2022-08-01T15:15:49.374Z,46.65
2022-08-01T15:18:16.970Z,40.78
2022-08-01T15:20:44.401Z,43.49
2022-08-01T15:23:11.999Z,43.82
2022-08-01T15:25:41.407Z,43.95
2022-08-01T15:28:13.423Z,41.51
2022-08-01T15:30:41.722Z,44.94
2022-08-01T15:33:09.212Z,46.34
2022-08-01T15:35:37.052Z,45.25
2022-08-01T15:38:04.412Z,44.59
2022-08-01T15:40:35.415Z,46.92
2022-08-01T15:43:08.532Z,44.86
2022-08-01T15:45:49.137Z,44.35
2022-08-01T15:48:18.509Z,42.97
2022-08-01T15:50:49.640Z,39.43
2022-08-01T15:53:19.491Z,41.00
2022-08-01T15:55:52.632Z,42.76
2022-08-01T15:58:21.790Z,44.88
2022-08-01T16:01:01.529Z,45.35
2022-08-01T16:03:29.242Z,45.11
2022-08-01T16:05:59.388Z,42.95
2022-08-01T16:08:27.481Z,44.38
2022-08-01T16:10:56.013Z,42.50
2022-08-01T16:13:24.422Z,43.30
2022-08-01T16:15:58.517Z,45.92
2022-08-01T16:18:28.539Z,45.81
2022-08-01T16:20:58.865Z,46.47
2022-08-01T16:23:27.545Z,42.23
2022-08-01T16:25:56.758Z,41.54
2022-08-01T16:28:24.958Z,40.33
2022-08-01T16:31:09.638Z,40.95
2022-08-01T16:33:54.169Z,42.47
2022-08-01T16:36:36.939Z,40.78
2022-08-01T16:39:10.680Z,41.63
2022-08-01T16:41:57.611Z,40.23
2022-08-01T16:44:35.020Z,41.08
2022-08-01T16:47:06.131Z,43.27
2022-08-01T16:49:38.217Z,43.32
2022-08-01T16:52:09.259Z,43.78
2022-08-01T16:54:40.698Z,41.69
2022-08-01T16:57:09.249Z,42.54
2022-08-01T16:59:42.161Z,42.07
2022-08-01T17:02:11.666Z,44.60
2022-08-01T17:04:42.727Z,41.51
2022-08-01T17:07:14.704Z,40.14
2022-08-01T17:09:43.678Z,39.47
2022-08-01T17:12:21.990Z,39.78
2022-08-01T17:14:53.645Z,39.96
2022-08-01T17:17:23.637Z,39.72
2022-08-01T17:19:55.119Z,39.83
2022-08-01T17:22:27.690Z,38.94
2022-08-01T17:25:00.594Z,39.24
2022-08-01T17:27:28.910Z,39.24
2022-08-01T17:29:58.518Z,37.27
2022-08-01T17:32:26.685Z,36.29
2022-08-01T17:34:54.742Z,35.70
2022-08-01T17:37:22.165Z,35.29
2022-08-01T17:39:49.613Z,35.42
2022-08-01T17:42:17.095Z,35.06
2022-08-01T17:44:46.079Z,34.82
2022-08-01T17:47:28.982Z,34.57
2022-08-01T17:50:08.896Z,34.58
2022-08-01T17:52:37.340Z,34.58
2022-08-01T17:55:06.125Z,34.38
2022-08-01T17:57:55.347Z,34.40
2022-08-01T18:00:22.715Z,34.27
2022-08-01T18:02:49.998Z,34.43
2022-08-01T18:05:17.412Z,34.17
2022-08-01T18:08:01.133Z,34.00
2022-08-01T18:10:29.741Z,34.32
2022-08-01T18:12:57.258Z,34.22
2022-08-01T18:15:26.161Z,34.18
2022-08-01T18:17:54.555Z,34.23
2022-08-01T18:20:22.052Z,33.76
2022-08-01T18:22:49.479Z,33.82
2022-08-01T18:25:16.800Z,33.72
2022-08-01T18:28:21.145Z,33.53
2022-08-01T18:30:33.784Z,33.08
2022-08-01T18:33:01.109Z,33.15
2022-08-01T18:35:52.160Z,33.13
2022-08-01T18:38:17.319Z,32.97
2022-08-01T18:40:45.936Z,32.91
2022-08-01T18:43:13.322Z,32.78
2022-08-01T18:45:42.974Z,32.79
2022-08-01T18:48:11.994Z,32.43
2022-08-01T18:50:39.948Z,32.49
2022-08-01T18:53:07.458Z,32.38
2022-08-01T18:55:34.834Z,32.44
2022-08-01T18:58:02.192Z,32.33
2022-08-01T19:00:29.839Z,32.29
2022-08-01T19:02:57.229Z,32.25
2022-08-01T19:05:24.569Z,32.26
2022-08-01T19:08:04.927Z,32.15
2022-08-01T19:10:34.246Z,31.87
2022-08-01T19:13:02.284Z,31.76
2022-08-01T19:15:29.670Z,31.76
2022-08-01T19:17:57.201Z,31.75
2022-08-01T19:20:24.724Z,31.53
2022-08-01T19:22:52.147Z,31.34
2022-08-01T19:25:20.327Z,31.34
2022-08-01T19:27:50.445Z,31.38
2022-08-01T19:30:19.387Z,31.52
2022-08-01T19:32:48.998Z,31.48
2022-08-01T19:35:17.805Z,31.42
2022-08-01T19:37:50.804Z,31.33
2022-08-01T19:40:27.574Z,31.24
2022-08-01T19:42:57.376Z,31.16
2022-08-01T19:45:29.866Z,31.10
2022-08-01T19:47:58.074Z,30.94
2022-08-01T19:50:29.490Z,31.06
2022-08-01T19:52:58.804Z,31.08
2022-08-01T19:55:30.344Z,30.98
2022-08-01T20:00:50.125Z,30.71
2022-08-01T20:03:19.485Z,30.72
2022-08-01T20:05:47.023Z,30.80
2022-08-01T20:08:16.562Z,30.59
2022-08-01T20:10:45.807Z,30.49
2022-08-01T20:13:14.000Z,30.35
2022-08-01T20:15:44.909Z,30.28
2022-08-01T20:18:12.347Z,30.28
2022-08-01T20:20:40.769Z,30.28
2022-08-01T20:23:18.307Z,30.26
2022-08-01T20:25:52.835Z,30.34
2022-08-01T20:28:28.253Z,30.36
2022-08-01T20:31:05.603Z,30.36
2022-08-01T20:33:40.722Z,30.41
2022-08-01T20:36:11.932Z,30.39
2022-08-01T20:38:42.174Z,30.29
2022-08-01T20:41:10.611Z,30.14
2022-08-01T20:43:38.536Z,30.13
2022-08-01T20:46:06.606Z,30.14
2022-08-01T20:48:34.349Z,30.09
2022-08-01T20:51:17.798Z,30.08
2022-08-01T20:53:49.230Z,29.94
2022-08-01T20:56:59.028Z,29.86
2022-08-01T20:59:52.699Z,29.76
2022-08-01T21:02:52.775Z,29.73
2022-08-01T21:05:56.003Z,29.67
2022-08-01T21:08:49.805Z,29.60
2022-08-01T21:11:21.524Z,29.57
2022-08-01T21:13:51.229Z,29.57
2022-08-01T21:16:32.474Z,29.65
2022-08-01T21:19:22.544Z,29.68
2022-08-01T21:22:10.428Z,29.70
2022-08-01T21:24:58.880Z,29.62
2022-08-01T21:27:33.395Z,29.56
2022-08-01T21:30:08.791Z,29.50
2022-08-01T21:32:37.575Z,29.45
2022-08-01T21:35:16.006Z,29.41
2022-08-01T21:37:52.460Z,29.43
2022-08-01T21:40:24.489Z,29.45
2022-08-01T21:42:54.161Z,29.45
2022-08-01T21:45:27.243Z,29.43
2022-08-01T21:47:57.810Z,29.39
2022-08-01T21:50:26.165Z,29.29
2022-08-01T21:53:43.417Z,29.25
2022-08-01T21:56:44.616Z,29.25
2022-08-01T22:00:01.458Z,29.40
2022-08-01T22:03:11.354Z,29.50
2022-08-01T22:05:42.618Z,29.33
2022-08-01T22:08:36.108Z,29.18
2022-08-01T22:11:08.417Z,29.05
2022-08-01T22:13:37.198Z,28.82
2022-08-01T22:16:07.059Z,28.64
2022-08-01T22:18:36.798Z,28.40
2022-08-01T22:21:04.491Z,28.25
2022-08-01T22:23:37.010Z,28.12
2022-08-01T22:26:09.109Z,28.00
2022-08-01T22:28:39.996Z,27.88
2022-08-01T22:31:07.536Z,27.79
2022-08-01T22:33:38.713Z,27.68
2022-08-01T22:36:07.686Z,27.52
2022-08-01T22:38:35.450Z,27.42
2022-08-01T22:41:14.578Z,27.32
2022-08-01T22:44:00.818Z,27.25
2022-08-01T22:47:10.512Z,27.10
2022-08-01T22:50:01.662Z,27.03
2022-08-01T22:52:31.189Z,27.00
2022-08-01T22:55:09.050Z,27.05
2022-08-01T22:57:50.718Z,27.15
2022-08-01T23:00:19.087Z,27.27
2022-08-01T23:02:53.495Z,27.20
2022-08-01T23:05:25.911Z,27.01
2022-08-01T23:07:56.928Z,26.91
2022-08-01T23:10:26.777Z,26.82
2022-08-01T23:12:56.019Z,26.74
2022-08-01T23:15:24.478Z,26.66
2022-08-01T23:17:52.070Z,26.57
2022-08-01T23:20:19.499Z,26.47
2022-08-01T23:22:47.945Z,26.39
2022-08-01T23:25:17.082Z,26.32
2022-08-01T23:27:51.387Z,26.24
2022-08-01T23:30:35.027Z,26.15
2022-08-01T23:33:03.145Z,26.12
2022-08-01T23:35:35.421Z,26.06
2022-08-01T23:38:10.122Z,25.93
2022-08-01T23:40:38.613Z,25.84
2022-08-01T23:43:16.733Z,25.74
2022-08-01T23:46:04.078Z,25.74
2022-08-01T23:48:35.035Z,25.73
2022-08-01T23:51:04.710Z,25.73
2022-08-01T23:53:33.928Z,25.72
2022-08-01T23:56:03.949Z,25.71
2022-08-01T23:58:32.698Z,25.68
